createdAt,value
2023-02-27T00:04:37.425Z,1.20
2023-02-27T00:09:42.764Z,1.00
2023-02-27T00:14:45.758Z,0.85
2023-02-27T00:19:50.156Z,0.70
2023-02-27T00:24:53.138Z,0.56
2023-02-27T00:29:56.247Z,0.40
2023-02-27T00:35:00.733Z,0.32
2023-02-27T00:40:05.235Z,0.24
2023-02-27T00:45:10.156Z,0.13
2023-02-27T00:50:14.838Z,0.07
2023-02-27T00:55:18.246Z,-0.03
2023-02-27T01:00:21.575Z,-0.05
2023-02-27T01:05:26.416Z,-0.12
2023-02-27T01:10:29.590Z,-0.09
2023-02-27T01:15:32.648Z,-0.16
2023-02-27T01:20:37.313Z,-0.16
2023-02-27T01:25:40.832Z,-0.21
2023-02-27T01:30:44.622Z,-0.28
2023-02-27T01:35:51.969Z,-0.31
2023-02-27T01:40:54.986Z,-0.35
2023-02-27T01:45:59.803Z,-0.50
2023-02-27T01:51:10.079Z,-0.54
2023-02-27T01:56:17.008Z,-0.53
2023-02-27T02:01:22.322Z,-0.54
2023-02-27T02:06:31.940Z,-0.59
2023-02-27T02:11:35.071Z,-0.60
2023-02-27T02:16:50.629Z,-0.62
2023-02-27T02:22:27.470Z,-0.70
2023-02-27T02:27:42.270Z,-0.79
2023-02-27T02:33:16.801Z,-0.86
2023-02-27T02:38:43.364Z,-0.82
2023-02-27T02:43:58.486Z,-0.90
2023-02-27T02:49:14.522Z,-0.87
2023-02-27T02:54:27.090Z,-0.96
2023-02-27T02:59:35.428Z,-0.91
2023-02-27T03:04:42.835Z,-1.01
2023-02-27T03:09:54.134Z,-0.95
2023-02-27T03:15:04.090Z,-1.04
2023-02-27T03:20:10.334Z,-1.08
2023-02-27T03:25:16.346Z,-1.10
2023-02-27T03:30:29.748Z,-1.06
2023-02-27T03:35:44.691Z,-1.08
2023-02-27T03:41:00.807Z,-1.05
2023-02-27T03:46:16.059Z,-1.02
2023-02-27T03:51:22.756Z,-1.03
2023-02-27T03:56:31.268Z,-1.02
2023-02-27T04:01:35.596Z,-1.01
2023-02-27T04:06:58.075Z,-1.04
2023-02-27T04:12:19.532Z,-1.13
2023-02-27T04:17:25.184Z,-1.15
2023-02-27T04:22:37.280Z,-1.15
2023-02-27T04:27:52.181Z,-1.22
2023-02-27T04:32:58.877Z,-1.31
2023-02-27T04:38:07.039Z,-1.39
2023-02-27T04:43:15.618Z,-1.42
2023-02-27T04:48:23.796Z,-1.44
2023-02-27T04:53:29.415Z,-1.46
2023-02-27T04:58:37.659Z,-1.53
2023-02-27T05:03:45.067Z,-1.59
2023-02-27T05:08:55.467Z,-1.63
2023-02-27T05:14:06.355Z,-1.74
2023-02-27T05:19:10.374Z,-1.69
2023-02-27T05:24:22.471Z,-1.75
2023-02-27T05:29:34.518Z,-1.79
2023-02-27T05:34:43.566Z,-1.82
2023-02-27T05:39:50.237Z,-1.94
2023-02-27T05:45:01.750Z,-1.96
2023-02-27T05:50:13.584Z,-2.00
2023-02-27T05:55:23.127Z,-2.18
2023-02-27T06:00:35.201Z,-2.07
2023-02-27T06:05:39.962Z,-2.12
2023-02-27T06:10:42.880Z,-2.12
2023-02-27T06:15:47.453Z,-2.07
2023-02-27T06:20:51.291Z,-2.07
2023-02-27T06:25:54.597Z,-1.96
2023-02-27T06:30:59.040Z,-1.92
2023-02-27T06:36:02.117Z,-1.93
2023-02-27T06:41:08.177Z,-1.84
2023-02-27T06:46:12.978Z,-1.73
2023-02-27T06:51:16.554Z,-1.75
2023-02-27T06:56:19.496Z,-1.68
2023-02-27T07:01:24.980Z,-1.72
2023-02-27T07:07:32.634Z,-1.67
2023-02-27T07:11:51.523Z,-1.65
2023-02-27T07:16:55.900Z,-1.63
2023-02-27T07:21:59.459Z,-1.56
2023-02-27T07:27:04.697Z,-1.52
2023-02-27T07:32:09.262Z,-1.50
2023-02-27T07:37:12.503Z,-1.47
2023-02-27T07:42:16.797Z,-1.40
2023-02-27T07:47:21.378Z,-1.28
2023-02-27T07:52:24.480Z,-1.20
2023-02-27T07:57:27.457Z,-1.15
2023-02-27T08:02:32.940Z,-1.08
2023-02-27T08:07:36.697Z,-1.03
2023-02-27T08:12:40.053Z,-0.97
2023-02-27T08:17:46.087Z,-0.90
2023-02-27T08:22:49.122Z,-0.79
2023-02-27T08:27:52.408Z,-0.70
2023-02-27T08:32:57.164Z,-0.60
2023-02-27T08:38:00.179Z,-0.48
2023-02-27T08:43:06.443Z,-0.36
2023-02-27T08:48:15.938Z,-0.05
2023-02-27T08:53:21.319Z,0.15
2023-02-27T08:58:24.308Z,0.25
2023-02-27T09:03:28.844Z,0.35
2023-02-27T09:08:32.256Z,0.71
2023-02-27T09:13:35.243Z,0.98
2023-02-27T09:18:39.650Z,1.46
2023-02-27T09:23:43.004Z,1.92
2023-02-27T09:28:46.017Z,2.46
2023-02-27T09:33:50.922Z,2.79
2023-02-27T09:38:53.997Z,3.19
2023-02-27T09:43:57.102Z,3.53
2023-02-27T09:49:05.219Z,3.82
2023-02-27T09:54:08.632Z,4.00
2023-02-27T09:59:22.439Z,4.31
2023-02-27T10:04:34.014Z,4.59
2023-02-27T10:09:45.391Z,4.66
2023-02-27T10:14:53.778Z,4.98
2023-02-27T10:19:59.699Z,5.08
2023-02-27T10:25:21.431Z,5.45
2023-02-27T10:30:34.692Z,5.40
2023-02-27T10:35:42.577Z,5.62
2023-02-27T10:40:46.684Z,5.73
2023-02-27T10:45:50.104Z,5.93
2023-02-27T10:51:21.988Z,6.06
2023-02-27T10:56:28.186Z,6.36
2023-02-27T11:01:43.933Z,6.63
2023-02-27T11:06:54.106Z,6.88
2023-02-27T11:12:11.407Z,7.26
2023-02-27T11:17:24.062Z,7.46
2023-02-27T11:22:30.767Z,7.71
2023-02-27T11:27:33.804Z,7.99
2023-02-27T11:32:42.564Z,7.80
2023-02-27T11:37:50.773Z,7.68
2023-02-27T11:42:56.423Z,7.99
2023-02-27T11:48:04.481Z,7.78
2023-02-27T11:53:27.090Z,8.32
2023-02-27T11:58:38.706Z,8.77
2023-02-27T12:03:50.584Z,9.27
2023-02-27T12:09:01.899Z,9.61
2023-02-27T12:14:17.864Z,9.20
2023-02-27T12:19:25.697Z,8.03
2023-02-27T12:24:37.815Z,7.32
2023-02-27T12:29:47.867Z,6.99
2023-02-27T12:34:55.540Z,7.16
2023-02-27T12:40:02.754Z,7.18
2023-02-27T12:45:44.437Z,8.04
2023-02-27T12:50:55.468Z,7.93
2023-02-27T12:56:05.291Z,7.54
2023-02-27T13:01:19.645Z,7.69
2023-02-27T13:06:31.291Z,8.42
2023-02-27T13:11:48.054Z,9.12
2023-02-27T13:16:59.035Z,9.50
2023-02-27T13:22:09.564Z,8.61
2023-02-27T13:27:21.276Z,8.23
2023-02-27T13:32:43.137Z,8.90
2023-02-27T13:37:52.205Z,9.19
2023-02-27T13:43:00.560Z,9.26
2023-02-27T13:48:06.000Z,9.25
2023-02-27T13:53:19.276Z,9.08
2023-02-27T13:58:25.927Z,8.78
2023-02-27T14:03:32.216Z,8.96
2023-02-27T14:08:48.946Z,9.31
2023-02-27T14:14:03.857Z,9.14
2023-02-27T14:19:42.046Z,8.88
2023-02-27T14:25:01.651Z,8.77
2023-02-27T14:30:23.430Z,8.68
2023-02-27T14:35:27.901Z,8.31
2023-02-27T14:40:38.508Z,8.20
2023-02-27T14:45:43.104Z,8.18
2023-02-27T14:50:46.131Z,8.65
2023-02-27T14:55:54.931Z,8.51
2023-02-27T15:01:05.015Z,8.24
2023-02-27T15:06:17.218Z,7.79
2023-02-27T15:11:22.337Z,8.01
2023-02-27T15:16:41.358Z,8.32
2023-02-27T15:21:49.799Z,8.57
2023-02-27T15:26:56.607Z,8.57
2023-02-27T15:32:01.663Z,8.24
2023-02-27T15:37:08.355Z,7.81
2023-02-27T15:42:16.100Z,7.55
2023-02-27T15:47:28.392Z,7.14
2023-02-27T15:52:39.969Z,7.05
2023-02-27T15:57:56.623Z,7.19
2023-02-27T16:03:08.132Z,7.23
2023-02-27T16:08:19.765Z,7.41
2023-02-27T16:13:35.038Z,7.61
2023-02-27T16:18:47.798Z,7.61
2023-02-27T16:23:51.690Z,7.35
2023-02-27T16:28:56.943Z,6.95
2023-02-27T16:34:06.174Z,6.90
2023-02-27T16:39:13.265Z,6.87
2023-02-27T16:44:18.233Z,6.68
2023-02-27T16:49:25.541Z,6.51
2023-02-27T16:54:28.775Z,6.35
2023-02-27T16:59:36.617Z,6.11
2023-02-27T17:04:44.179Z,5.94
2023-02-27T17:09:50.946Z,5.62
2023-02-27T17:14:54.206Z,5.56
2023-02-27T17:19:58.669Z,5.29
2023-02-27T17:25:01.873Z,5.18
2023-02-27T17:30:09.604Z,5.02
2023-02-27T17:35:14.119Z,4.87
2023-02-27T17:40:20.088Z,4.68
2023-02-27T17:45:24.897Z,4.61
2023-02-27T17:50:32.068Z,4.46
2023-02-27T17:55:35.152Z,4.29
2023-02-27T18:00:38.302Z,4.18
2023-02-27T18:05:49.157Z,4.05
2023-02-27T18:10:53.539Z,3.92
2023-02-27T18:15:59.638Z,3.79
2023-02-27T18:21:06.955Z,3.66
2023-02-27T18:26:23.729Z,3.55
2023-02-27T18:31:33.883Z,3.48
2023-02-27T18:36:38.752Z,3.33
2023-02-27T18:41:42.366Z,3.23
2023-02-27T18:46:45.613Z,3.16
2023-02-27T18:51:50.215Z,3.05
2023-02-27T18:56:53.326Z,2.95
2023-02-27T19:01:57.647Z,2.85
2023-02-27T19:07:05.292Z,2.77
2023-02-27T19:12:11.860Z,2.71
2023-02-27T19:17:14.986Z,2.68
2023-02-27T19:22:22.560Z,2.45
2023-02-27T19:27:26.218Z,2.50
2023-02-27T19:32:29.429Z,2.51
2023-02-27T19:37:34.143Z,2.49
2023-02-27T19:42:37.663Z,2.49
2023-02-27T19:47:41.123Z,2.39
2023-02-27T19:52:45.710Z,2.38
2023-02-27T19:57:48.881Z,2.39
2023-02-27T20:02:52.088Z,2.47
2023-02-27T20:07:57.710Z,2.52
2023-02-27T20:13:01.012Z,2.59
2023-02-27T20:18:05.333Z,2.79
2023-02-27T20:23:09.853Z,2.89
2023-02-27T20:28:13.376Z,2.84
2023-02-27T20:33:16.482Z,2.77
2023-02-27T20:38:22.789Z,2.69
2023-02-27T20:43:26.219Z,2.79
2023-02-27T20:48:31.795Z,2.84
2023-02-27T20:53:47.142Z,2.75
2023-02-27T20:58:53.790Z,2.84
2023-02-27T21:03:58.835Z,2.74
2023-02-27T21:09:07.373Z,2.74
2023-02-27T21:14:13.421Z,2.69
2023-02-27T21:19:16.521Z,2.59
2023-02-27T21:24:23.599Z,2.47
2023-02-27T21:29:27.095Z,2.37
2023-02-27T21:34:30.689Z,2.27
2023-02-27T21:39:35.147Z,2.09
2023-02-27T21:44:38.330Z,1.96
2023-02-27T21:49:41.604Z,1.85
2023-02-27T21:54:46.179Z,1.74
2023-02-27T21:59:51.887Z,1.59
2023-02-27T22:04:54.895Z,1.49
2023-02-27T22:09:59.333Z,1.36
2023-02-27T22:15:05.708Z,1.35
2023-02-27T22:20:10.175Z,1.27
2023-02-27T22:25:14.886Z,1.21
2023-02-27T22:30:18.316Z,1.14
2023-02-27T22:35:21.328Z,1.08
2023-02-27T22:40:25.888Z,0.98
2023-02-27T22:45:34.116Z,0.89
2023-02-27T22:50:45.737Z,0.79
2023-02-27T22:55:55.669Z,0.69
2023-02-27T23:00:58.888Z,0.65
2023-02-27T23:06:02.001Z,0.59
2023-02-27T23:11:10.723Z,0.50
2023-02-27T23:16:14.423Z,0.48
2023-02-27T23:21:20.197Z,0.46
2023-02-27T23:26:28.640Z,0.34
2023-02-27T23:31:34.660Z,0.31
2023-02-27T23:36:40.705Z,0.23
2023-02-27T23:41:45.063Z,0.13
2023-02-27T23:46:48.368Z,0.06
2023-02-27T23:51:51.527Z,-0.01
2023-02-27T23:56:55.835Z,0.03
